Terminal Aerodrome Forecast
Issued by NWS Mt. Holly, NJ

Home | Current Version | Previous Version | Text Only | Print | Product List | Glossary On
Versions: 1 2 3 4 5 6 7 8 9 10 11 12 13 14 15 16
793
FTUS41 KPHI 201734
TAFTTN
TAF
KTTN 201734Z 2018/2118 35012KT P6SM SCT250
     FM202200 02007KT P6SM SCT250
     FM210200 VRB03KT P6SM SCT250
     FM211700 15007KT P6SM SCT150=

USA.gov is the U.S. government's official web portal to all federal, state and local government web resources and services.